Airport View

Enter AWOS ICAO identifier for current METAR.

ex. KFNL

KOWK 251114Z AUTO 35006KT 10SM 03/M04 A3019

25 Oct 2020 11:20

Frequency: 122.8

Other Area AWOS: KWVL - KAUG - K8B0 - KBST

TAF KAUG 250529Z 2506/2606 34007KT P6SM FEW250 FM252200 VRB04KT P6SM FEW250